Ona, Florida
Current Conditions -  °F | °C
As of 7:15 AM on Friday 31 Oct 2014 (Local Time) from KBOW Reporting Station
Broken Clouds Broken Clouds  
Wind Chill: 66°   Ceiling: 4300
Heat Index: 66°   Visibility: 10mi
Dew Point: 66°   Wind: 5mph
Humidity: 100%   Direction: 320°NW
Pressure: 29.87"   Gusts: NA
Location:  27.48°N, 81.92°W
Report Text: KBOW 311115Z AUTO 32004KT 10SM BKN043 19/19 A2987 RMK AO2
Loading
Personal Weather Stations






























Interactive Weather Map
Tropical Storm Tracking
New forecast layout! Learn more

10-Day Weather Forecast

Advertisements
Track Severe Weather on mobile